KRCX

Details ICAO KRCX
Name RUSK COUNTY
Region United States
Timezone America/Chicago (UTC-6.0)
Plans Departing 0
Arriving 2
Stats Elevation 1,238 ft / 377 m (AMSL)
Location 45.496750° -91.000411°
Runways 2
Magnetic Variation 1.744° W
Sunrise 2017-12-18 13:40:50 UTC / 2017-12-18 07:40:50 Local
Sunset 2017-12-18 22:23:20 UTC / 2017-12-18 16:23:20 Local
Advertisement - Login to hide

Runways

ID Width Length Bearing (true) Bearing (mag) Surface Threshold Offset Overrun Length
01 75 ft / 23 m 3,202 ft / 976 m 6.48° 8.22° Asphalt 0 ft / 0 m 0 ft / 0 m
14 75 ft / 23 m 3,998 ft / 1,219 m 140.59° 142.33° Asphalt 0 ft / 0 m 0 ft / 0 m
19 75 ft / 23 m 3,202 ft / 976 m 186.49° 188.23° Asphalt 0 ft / 0 m 0 ft / 0 m
32 75 ft / 23 m 3,998 ft / 1,219 m 320.60° 322.34° Asphalt 0 ft / 0 m 0 ft / 0 m

Map

Weather


0- 5 10 15 20 25 30 35+ Temperature / ° C

Clouds and Precipitation
Forecast for 2017-12-18 18:00 UTC. Updated an hour ago

Ground ~20,000 ft ~40,000 ft Winds

METAR

KRCX 181555Z AUTO 19008KT 1 1/4SM BR OVC002 M02/M03 A2980 RMK AO2 T10221026

TAF

Not found

Frequencies

Recorded 118.12 MHz AWOS 3
Warning: Do not use this data for real-world aviation or navigation. No guarantee of current accuracy is given.